Time;durP1;ratioP1;P1;durP2;ratioP2;P2;SDS_P1;SDS_P2;PMS_P1;PMS_P2;Temp;Humidity;BMP_temperature;BMP_pressure;BME280_temperature;BME280_humidity;BME280_pressure;Samples;Min_cycle;Max_cycle;Signal;HPM_P1;HPM_P2
2021/04/07 00:02:17;;;;;;;15.73;1.80;;;;;;;;;;4927164;28;20082;-86
2021/04/07 00:04:40;;;;;;;6.57;1.20;;;0.20;99.90;;;;;;4924031;28;20101;-85
2021/04/07 00:07:03;;;;;;;8.57;1.45;;;0.30;99.90;;;;;;4925158;28;20094;-85
2021/04/07 00:09:27;;;;;;;8.80;1.50;;;0.20;99.90;;;;;;4925560;28;20091;-86
2021/04/07 00:11:50;;;;;;;9.70;1.13;;;0.20;99.90;;;;;;4924651;28;20146;-86
2021/04/07 00:14:14;;;;;;;16.40;1.45;;;0.10;99.90;;;;;;4926285;28;20089;-86
2021/04/07 00:16:36;;;;;;;16.40;1.60;;;0.10;99.90;;;;;;4920824;28;20540;-86
2021/04/07 00:18:59;;;;;;;9.00;1.25;;;0.10;99.90;;;;;;4925697;28;20098;-85
2021/04/07 00:21:22;;;;;;;12.90;1.27;;;0.00;99.90;;;;;;4925354;28;20103;-86
2021/04/07 00:23:44;;;;;;;9.85;1.35;;;0.10;99.90;;;;;;4927324;28;20143;-87
2021/04/07 00:26:07;;;;;;;10.85;1.30;;;0.10;99.90;;;;;;4926315;28;20108;-85
2021/04/07 00:28:30;;;;;;;10.50;0.90;;;0.20;99.90;;;;;;4923676;28;20097;-84
2021/04/07 00:30:53;;;;;;;13.02;1.55;;;0.30;99.90;;;;;;4925166;28;20093;-84
2021/04/07 00:33:17;;;;;;;13.18;1.30;;;0.30;99.90;;;;;;4914026;28;20517;-86
2021/04/07 00:35:40;;;;;;;7.88;1.27;;;0.40;99.90;;;;;;4923134;28;20105;-86
2021/04/07 00:38:03;;;;;;;8.88;1.50;;;0.40;99.90;;;;;;4914963;28;20177;-86
2021/04/07 00:40:25;;;;;;;5.88;1.27;;;0.40;99.90;;;;;;4923591;28;20090;-84
2021/04/07 00:42:50;;;;;;;17.60;1.73;;;0.50;99.90;;;;;;4925296;28;20828;-86
2021/04/07 00:45:14;;;;;;;8.63;1.20;;;;;;;;;;4925552;28;20527;-85
2021/04/07 00:47:37;;;;;;;10.07;1.30;;;0.50;99.90;;;;;;4922836;28;20083;-86
2021/04/07 00:50:00;;;;;;;7.72;1.52;;;0.50;99.90;;;;;;4924505;28;20083;-85
2021/04/07 00:52:22;;;;;;;18.50;1.63;;;0.50;99.90;;;;;;4922621;28;20557;-85
2021/04/07 00:54:45;;;;;;;10.73;1.73;;;0.50;99.90;;;;;;4924681;28;20093;-86
2021/04/07 00:57:08;;;;;;;5.68;1.50;;;0.50;99.90;;;;;;4925380;28;20182;-84
2021/04/07 01:02:52;;;;;;;;;;;0.60;99.90;;;;;;4916126;28;20096;-86
2021/04/07 01:05:15;;;;;;;7.65;1.23;;;;;;;;;;4929748;28;19965;-86
2021/04/07 01:07:38;;;;;;;9.15;1.58;;;0.50;99.90;;;;;;4923106;28;20092;-86
2021/04/07 01:10:02;;;;;;;16.92;1.83;;;0.50;99.90;;;;;;4929625;28;20492;-86
2021/04/07 01:12:25;;;;;;;13.35;2.03;;;0.40;99.90;;;;;;4927167;28;20089;-86
2021/04/07 01:14:47;;;;;;;9.68;1.50;;;0.40;99.90;;;;;;4928758;28;20093;-85
2021/04/07 01:17:12;;;;;;;13.27;1.45;;;0.50;99.90;;;;;;4915376;28;20090;-84
2021/04/07 01:19:36;;;;;;;21.02;1.33;;;;;;;;;;4927020;28;20109;-85
2021/04/07 01:22:00;;;;;;;12.15;1.77;;;0.40;99.90;;;;;;4927723;28;20094;-85
2021/04/07 01:24:25;;;;;;;11.25;1.50;;;0.40;99.90;;;;;;4929416;28;20097;-85
2021/04/07 01:26:48;;;;;;;14.30;1.10;;;0.40;99.90;;;;;;4929414;28;20089;-86
2021/04/07 01:29:11;;;;;;;26.05;2.58;;;;;;;;;;4924309;28;20094;-84
2021/04/07 01:31:44;;;;;;;7.35;1.30;;;0.60;99.90;;;;;;4928693;28;20496;-84
2021/04/07 01:34:06;;;;;;;13.82;1.52;;;0.60;99.90;;;;;;4925593;28;20093;-84
2021/04/07 01:36:29;;;;;;;16.35;2.10;;;0.70;99.90;;;;;;4929816;28;20164;-86
2021/04/07 01:38:52;;;;;;;21.38;2.05;;;0.70;99.90;;;;;;4926596;28;20104;-86
2021/04/07 01:41:17;;;;;;;15.88;2.10;;;0.60;99.90;;;;;;4928573;28;20091;-86
2021/04/07 01:43:40;;;;;;;9.25;0.80;;;0.50;99.90;;;;;;4927521;28;20638;-85
2021/04/07 01:46:03;;;;;;;14.38;1.63;;;0.50;99.90;;;;;;4929950;28;20099;-87
2021/04/07 01:48:26;;;;;;;15.30;1.95;;;0.50;99.90;;;;;;4926758;28;20099;-84
2021/04/07 01:50:49;;;;;;;10.15;1.40;;;0.40;99.90;;;;;;4928146;28;20097;-85
2021/04/07 01:53:13;;;;;;;17.95;1.63;;;0.30;99.90;;;;;;4925237;28;20087;-84
2021/04/07 01:55:36;;;;;;;17.10;1.88;;;0.30;99.90;;;;;;4928943;28;20097;-86
2021/04/07 01:57:59;;;;;;;14.75;2.17;;;0.30;99.90;;;;;;4906928;28;20189;-86
2021/04/07 02:00:23;;;;;;;22.60;1.85;;;0.30;99.90;;;;;;4919491;28;20097;-85
2021/04/07 02:02:45;;;;;;;14.48;1.58;;;;;;;;;;4928169;28;20472;-85
2021/04/07 02:05:09;;;;;;;17.98;1.65;;;0.30;99.90;;;;;;4928530;28;21022;-85
2021/04/07 02:07:32;;;;;;;11.00;1.73;;;0.40;99.90;;;;;;4928758;28;20091;-86
2021/04/07 02:09:54;;;;;;;9.50;1.65;;;0.40;99.90;;;;;;4925597;28;20106;-84
2021/04/07 02:12:17;;;;;;;6.57;1.17;;;0.50;99.90;;;;;;4930040;28;20502;-86
2021/04/07 02:14:40;;;;;;;5.68;1.67;;;;;;;;;;4925743;28;20123;-86
2021/04/07 02:17:05;;;;;;;12.65;2.13;;;0.50;99.90;;;;;;4926417;28;20090;-86
2021/04/07 02:19:29;;;;;;;14.75;2.10;;;0.50;99.90;;;;;;4925462;28;20097;-85
2021/04/07 02:22:01;;;;;;;8.57;1.13;;;0.40;99.90;;;;;;4926774;28;20452;-85
2021/04/07 02:24:24;;;;;;;6.75;1.13;;;0.40;99.90;;;;;;4926184;28;20098;-85
2021/04/07 02:26:46;;;;;;;8.32;1.17;;;0.40;99.90;;;;;;4918951;28;20096;-86
2021/04/07 02:29:10;;;;;;;6.13;1.35;;;0.30;99.90;;;;;;4926731;28;20095;-85
2021/04/07 02:31:34;;;;;;;13.00;1.52;;;;;;;;;;4927750;28;20095;-83
2021/04/07 02:33:57;;;;;;;17.02;1.55;;;0.30;99.90;;;;;;4927746;28;20158;-86
2021/04/07 02:36:19;;;;;;;13.18;1.50;;;0.30;99.90;;;;;;4926099;28;20083;-86
2021/04/07 02:38:42;;;;;;;9.38;1.40;;;0.30;99.90;;;;;;4926903;28;20084;-86
2021/04/07 02:41:04;;;;;;;18.23;1.67;;;0.40;99.90;;;;;;4927152;28;20143;-86
2021/04/07 02:43:27;;;;;;;14.73;1.55;;;0.30;99.90;;;;;;4926771;28;20182;-85
2021/04/07 02:45:50;;;;;;;17.40;1.52;;;;;;;;;;4917757;28;20090;-86
2021/04/07 02:48:13;;;;;;;13.57;1.17;;;0.50;99.90;;;;;;4917328;28;20089;-85
2021/04/07 02:50:37;;;;;;;11.60;1.30;;;0.60;99.90;;;;;;4926652;28;20438;-84
2021/04/07 02:52:59;;;;;;;15.82;1.23;;;0.60;99.90;;;;;;4924477;28;20633;-85
2021/04/07 02:55:22;;;;;;;13.20;1.98;;;0.60;99.90;;;;;;4927785;28;20125;-86
2021/04/07 02:57:46;;;;;;;10.32;1.65;;;0.70;99.90;;;;;;4925376;28;20101;-87
2021/04/07 03:00:10;;;;;;;10.88;1.40;;;0.60;99.90;;;;;;4925786;28;20089;-87
2021/04/07 03:02:32;;;;;;;10.23;1.23;;;0.60;99.90;;;;;;4927632;28;20088;-83
2021/04/07 03:04:56;;;;;;;12.23;1.20;;;0.60;99.90;;;;;;4926557;28;20083;-86
2021/04/07 03:07:18;;;;;;;12.77;1.55;;;0.70;99.90;;;;;;4927082;28;20095;-86
2021/04/07 03:09:41;;;;;;;16.38;1.48;;;0.70;99.90;;;;;;4927755;28;20091;-87
2021/04/07 03:12:04;;;;;;;7.45;1.02;;;0.70;99.90;;;;;;4926000;28;20088;-85
2021/04/07 03:14:26;;;;;;;13.43;1.00;;;0.70;99.90;;;;;;4925455;28;20094;-86
2021/04/07 03:16:49;;;;;;;18.83;1.60;;;0.60;99.90;;;;;;4927452;28;20105;-86
2021/04/07 03:19:11;;;;;;;12.77;1.67;;;0.60;99.90;;;;;;4924930;28;20121;-85
2021/04/07 03:21:35;;;;;;;13.35;1.70;;;;;;;;;;4926599;28;20486;-85
2021/04/07 03:23:58;;;;;;;11.35;1.80;;;0.50;99.90;;;;;;4925100;28;20166;-85
2021/04/07 03:26:20;;;;;;;14.55;1.88;;;0.50;99.90;;;;;;4924582;28;20127;-86
2021/04/07 03:28:43;;;;;;;5.20;1.33;;;;;;;;;;4926984;28;20582;-84
2021/04/07 03:31:08;;;;;;;15.77;2.22;;;0.30;99.90;;;;;;4927267;28;20149;-86
2021/04/07 03:33:34;;;;;;;14.13;1.77;;;0.20;99.90;;;;;;4918311;28;20427;-86
2021/04/07 03:35:58;;;;;;;20.60;1.63;;;0.20;99.90;;;;;;4922904;28;20095;-86
2021/04/07 03:38:22;;;;;;;11.63;1.73;;;0.30;99.90;;;;;;4914552;28;20133;-87
2021/04/07 03:40:45;;;;;;;15.23;1.30;;;0.30;99.90;;;;;;4923276;28;20103;-86
2021/04/07 03:43:09;;;;;;;9.40;1.73;;;0.40;99.90;;;;;;4924906;28;20098;-85
2021/04/07 03:45:31;;;;;;;12.02;1.73;;;0.40;99.90;;;;;;4925849;28;20091;-85
2021/04/07 03:47:54;;;;;;;20.60;1.40;;;;;;;;;;4927631;28;20532;-87
2021/04/07 03:50:17;;;;;;;9.23;1.17;;;0.40;99.90;;;;;;4923621;28;20089;-87
2021/04/07 03:52:41;;;;;;;13.38;1.65;;;0.30;99.90;;;;;;4926315;28;20085;-89
2021/04/07 03:55:05;;;;;;;9.47;1.70;;;0.30;99.90;;;;;;4924632;28;20177;-88
2021/04/07 03:57:30;;;;;;;9.68;1.38;;;0.40;99.90;;;;;;4924023;28;20134;-86
2021/04/07 03:59:54;;;;;;;13.48;1.83;;;;;;;;;;4925935;28;20089;-87
2021/04/07 04:02:16;;;;;;;10.18;1.20;;;0.40;99.90;;;;;;4927283;28;20149;-87
2021/04/07 04:04:41;;;;;;;8.18;1.00;;;0.40;99.90;;;;;;4925333;28;20086;-86
2021/04/07 04:07:05;;;;;;;10.55;2.13;;;0.40;99.90;;;;;;4925163;28;20101;-89
2021/04/07 04:09:28;;;;;;;10.45;1.45;;;0.40;99.90;;;;;;4925001;28;20097;-87
2021/04/07 04:11:53;;;;;;;11.27;1.42;;;;;;;;;;4925323;28;20087;-88
2021/04/07 04:14:15;;;;;;;14.07;1.65;;;0.30;99.90;;;;;;4923920;28;20089;-83
2021/04/07 04:16:38;;;;;;;11.80;1.20;;;0.40;99.90;;;;;;4926115;28;20089;-85
2021/04/07 04:19:01;;;;;;;9.80;1.13;;;0.40;99.90;;;;;;4926423;28;20102;-86
2021/04/07 04:21:23;;;;;;;9.27;1.65;;;0.30;99.90;;;;;;4924165;28;20086;-87
2021/04/07 04:23:47;;;;;;;9.57;1.77;;;0.40;99.90;;;;;;4926235;28;20087;-86
2021/04/07 04:26:09;;;;;;;16.85;1.60;;;0.40;99.90;;;;;;4926116;28;20094;-87
2021/04/07 04:28:33;;;;;;;9.18;1.58;;;0.40;99.90;;;;;;4924723;28;20102;-87
2021/04/07 04:30:55;;;;;;;23.45;1.80;;;0.40;99.90;;;;;;4922692;28;20098;-84
2021/04/07 04:33:18;;;;;;;16.00;1.65;;;0.30;99.90;;;;;;4927444;28;20108;-87
2021/04/07 04:35:41;;;;;;;9.48;1.20;;;;;;;;;;4924489;28;20083;-88
2021/04/07 04:38:03;;;;;;;10.45;0.95;;;0.30;99.90;;;;;;4924291;28;20088;-85
2021/04/07 04:40:26;;;;;;;13.68;1.35;;;0.30;99.90;;;;;;4927316;28;20427;-87
2021/04/07 04:42:49;;;;;;;8.27;1.30;;;;;;;;;;4924514;28;20094;-86
2021/04/07 04:45:14;;;;;;;10.05;1.50;;;0.40;99.90;;;;;;4924151;28;20085;-86
2021/04/07 04:47:37;;;;;;;9.50;1.63;;;0.40;99.90;;;;;;4925019;28;20089;-88
2021/04/07 04:50:00;;;;;;;11.90;1.40;;;0.40;99.90;;;;;;4925898;28;20102;-87
2021/04/07 04:52:23;;;;;;;14.38;1.60;;;0.50;99.90;;;;;;4924765;28;20118;-87
2021/04/07 04:54:46;;;;;;;13.63;2.30;;;0.50;99.90;;;;;;4927607;28;20085;-88
2021/04/07 04:57:08;;;;;;;15.82;1.30;;;;;;;;;;4925871;28;20198;-86
2021/04/07 04:59:31;;;;;;;11.40;1.42;;;0.50;99.90;;;;;;4923775;28;20089;-87
2021/04/07 05:01:54;;;;;;;7.13;1.65;;;0.50;99.90;;;;;;4923907;28;20091;-85
2021/04/07 05:04:18;;;;;;;16.77;1.55;;;0.60;99.90;;;;;;4915507;28;20096;-85
2021/04/07 05:06:40;;;;;;;13.15;1.50;;;0.60;99.90;;;;;;4914277;28;20087;-88
2021/04/07 05:09:06;;;;;;;14.40;1.92;;;0.60;99.90;;;;;;4901294;28;20095;-87
2021/04/07 05:11:28;;;;;;;8.85;1.70;;;0.70;99.90;;;;;;4921448;28;20089;-88
2021/04/07 05:13:51;;;;;;;13.30;1.30;;;0.70;99.90;;;;;;4921496;28;20568;-88
2021/04/07 05:16:13;;;;;;;12.30;1.33;;;0.70;99.90;;;;;;4923305;28;20105;-87
2021/04/07 05:18:37;;;;;;;6.70;1.27;;;0.80;99.90;;;;;;4926567;28;20124;-87
2021/04/07 05:20:59;;;;;;;15.02;1.65;;;0.90;99.90;;;;;;4925365;28;20449;-89
2021/04/07 05:23:23;;;;;;;12.35;1.67;;;0.90;99.90;;;;;;4925736;28;20101;-89
2021/04/07 05:25:45;;;;;;;14.52;1.33;;;0.90;99.90;;;;;;4926280;28;20444;-88
2021/04/07 05:28:09;;;;;;;7.70;1.98;;;0.90;99.90;;;;;;4923487;28;20092;-87
2021/04/07 05:33:11;;;;;;;9.90;1.20;;;0.80;99.90;;;;;;4913386;28;25197;-86
2021/04/07 05:35:35;;;;;;;5.25;1.65;;;0.90;99.90;;;;;;4924039;28;20164;-89
2021/04/07 05:37:57;;;;;;;8.98;1.40;;;0.90;99.90;;;;;;4922385;28;20102;-88
2021/04/07 05:40:20;;;;;;;5.68;1.17;;;1.00;99.90;;;;;;4924290;28;20085;-88
2021/04/07 05:42:42;;;;;;;5.93;1.10;;;1.10;99.90;;;;;;4922959;28;20082;-88
2021/04/07 05:45:06;;;;;;;3.88;1.08;;;1.30;99.90;;;;;;4906115;28;20083;-87
2021/04/07 05:47:29;;;;;;;3.90;0.73;;;1.40;99.90;;;;;;4921297;28;20441;-89
2021/04/07 05:49:51;;;;;;;3.33;0.90;;;1.60;99.90;;;;;;4926573;28;20535;-88
2021/04/07 05:52:15;;;;;;;2.95;1.02;;;1.60;99.90;;;;;;4918861;28;20560;-88
2021/04/07 05:54:37;;;;;;;9.18;1.10;;;1.50;99.90;;;;;;4928177;28;20097;-89
2021/04/07 05:57:00;;;;;;;2.72;0.80;;;1.40;99.90;;;;;;4924853;28;20540;-94
2021/04/07 05:59:22;;;;;;;4.95;0.93;;;1.60;99.90;;;;;;4927184;28;20091;-87
2021/04/07 06:01:45;;;;;;;5.45;0.95;;;1.50;99.90;;;;;;4925493;28;20091;-87
2021/04/07 06:04:08;;;;;;;6.22;1.13;;;1.40;99.90;;;;;;4922379;28;20092;-89
2021/04/07 06:06:31;;;;;;;4.20;1.20;;;1.20;99.90;;;;;;4927251;28;20586;-89
2021/04/07 06:08:54;;;;;;;3.88;1.27;;;1.10;99.90;;;;;;4924835;28;20139;-89
2021/04/07 06:11:18;;;;;;;6.35;1.48;;;1.00;99.90;;;;;;4925392;28;20432;-87
2021/04/07 06:13:40;;;;;;;5.05;1.00;;;1.00;99.90;;;;;;4926727;28;20098;-90
2021/04/07 06:16:03;;;;;;;8.98;1.58;;;1.00;99.90;;;;;;4908949;28;20102;-87
2021/04/07 06:18:26;;;;;;;4.90;1.42;;;1.00;99.90;;;;;;4925082;28;20096;-87
2021/04/07 06:20:50;;;;;;;14.00;1.98;;;1.00;99.90;;;;;;4926692;28;20700;-85
2021/04/07 06:23:16;;;;;;;12.77;1.58;;;1.00;99.90;;;;;;4926469;28;20097;-89
2021/04/07 06:25:40;;;;;;;;;;;1.00;99.90;;;;;;4926298;28;20300;-87
2021/04/07 06:28:06;;;;;;;5.28;1.05;;;1.10;99.90;;;;;;4925483;28;19967;-91
2021/04/07 06:30:42;;;;;;;6.70;0.73;;;1.10;99.90;;;;;;4926663;28;20100;-87
2021/04/07 06:33:06;;;;;;;10.30;1.30;;;;;;;;;;4924766;28;20183;-88
2021/04/07 06:35:29;;;;;;;8.13;1.17;;;1.10;99.90;;;;;;4928435;28;20441;-88
2021/04/07 06:37:51;;;;;;;6.63;1.08;;;1.10;99.90;;;;;;4926702;28;20100;-88
2021/04/07 06:40:14;;;;;;;6.90;1.92;;;1.00;99.90;;;;;;4924467;28;20091;-89
2021/04/07 06:42:38;;;;;;;6.50;1.25;;;1.00;99.90;;;;;;4928583;28;20089;-86
2021/04/07 06:45:01;;;;;;;16.80;2.40;;;1.10;99.90;;;;;;4926288;28;20089;-86
2021/04/07 06:47:23;;;;;;;16.27;1.70;;;1.10;99.90;;;;;;4926461;28;20095;-89
2021/04/07 06:49:50;;;;;;;17.45;1.92;;;1.20;99.90;;;;;;4926807;28;20084;-88
2021/04/07 06:52:20;;;;;;;15.40;1.55;;;1.20;99.90;;;;;;4919944;28;20141;-89
2021/04/07 06:54:45;;;;;;;12.52;1.63;;;1.30;99.90;;;;;;4925706;28;20101;-92
2021/04/07 06:57:08;;;;;;;6.47;1.65;;;1.30;99.90;;;;;;4928273;28;20090;-89
2021/04/07 06:59:36;;;;;;;6.80;1.50;;;1.40;99.90;;;;;;4924339;28;20092;-88
2021/04/07 07:01:58;;;;;;;17.23;2.00;;;1.40;99.90;;;;;;4927692;28;20103;-90
2021/04/07 07:04:21;;;;;;;11.38;2.05;;;1.50;99.90;;;;;;4925128;28;20114;-88
2021/04/07 07:06:45;;;;;;;10.30;1.73;;;1.70;99.90;;;;;;4927915;28;20091;-88
2021/04/07 07:09:17;;;;;;;7.88;1.48;;;2.30;99.90;;;;;;4925619;28;20082;-89
2021/04/07 07:11:41;;;;;;;7.72;1.92;;;2.60;99.90;;;;;;4927766;28;20159;-87
2021/04/07 07:14:04;;;;;;;8.13;1.48;;;2.60;99.90;;;;;;4926199;28;20460;-90
2021/04/07 07:16:29;;;;;;;9.15;1.88;;;3.10;99.90;;;;;;4927374;28;20144;-89
2021/04/07 07:18:51;;;;;;;10.68;1.77;;;3.70;99.90;;;;;;4925155;28;20093;-86
2021/04/07 07:21:16;;;;;;;16.77;1.73;;;3.70;99.90;;;;;;4926826;28;20086;-83
2021/04/07 07:23:38;;;;;;;9.77;2.13;;;4.10;99.90;;;;;;4928118;28;20095;-83
2021/04/07 07:26:04;;;;;;;17.40;1.92;;;5.40;99.90;;;;;;4917642;28;20541;-86
2021/04/07 07:28:28;;;;;;;13.55;2.28;;;6.40;99.90;;;;;;4925842;28;20113;-86
2021/04/07 07:30:50;;;;;;;9.85;1.48;;;6.30;99.90;;;;;;4924089;28;20086;-89
2021/04/07 07:33:17;;;;;;;10.27;1.65;;;6.20;99.90;;;;;;4928073;28;20086;-84
2021/04/07 07:35:40;;;;;;;8.85;1.60;;;;;;;;;;4924645;28;20093;-88
2021/04/07 07:38:03;;;;;;;13.75;1.58;;;7.30;99.90;;;;;;4926335;28;20552;-85
2021/04/07 07:40:26;;;;;;;17.38;2.00;;;7.60;99.90;;;;;;4924979;28;20092;-88
2021/04/07 07:42:49;;;;;;;8.57;3.03;;;7.90;99.90;;;;;;4924685;28;20085;-87
2021/04/07 07:45:14;;;;;;;9.52;2.35;;;7.90;99.90;;;;;;4925962;28;20570;-87
2021/04/07 07:47:40;;;;;;;8.00;1.70;;;7.90;99.90;;;;;;4925834;28;20085;-88
2021/04/07 07:50:06;;;;;;;7.68;1.80;;;7.80;99.90;;;;;;4925341;28;20488;-86
2021/04/07 07:52:30;;;;;;;11.75;1.77;;;8.00;99.90;;;;;;4925925;28;20092;-86
2021/04/07 07:54:53;;;;;;;14.35;1.67;;;8.30;99.90;;;;;;4925080;28;20088;-88
2021/04/07 07:57:16;;;;;;;14.25;2.63;;;8.70;99.90;;;;;;4925448;28;20455;-89
2021/04/07 07:59:38;;;;;;;7.82;1.50;;;9.40;99.90;;;;;;4914540;28;20166;-89
2021/04/07 08:02:01;;;;;;;10.00;1.40;;;;;;;;;;4927638;28;20430;-86
2021/04/07 08:04:24;;;;;;;7.82;1.75;;;9.20;99.90;;;;;;4924894;28;20095;-88
2021/04/07 08:06:47;;;;;;;11.85;2.17;;;8.80;99.90;;;;;;4924182;28;20081;-87
2021/04/07 08:09:11;;;;;;;7.40;1.60;;;8.20;99.90;;;;;;4924353;28;20147;-84
2021/04/07 08:11:35;;;;;;;12.02;2.30;;;7.60;99.90;;;;;;4925140;28;20089;-85
2021/04/07 08:13:59;;;;;;;9.95;1.95;;;7.60;99.90;;;;;;4924006;28;20077;-85
2021/04/07 08:16:23;;;;;;;13.88;2.10;;;8.30;99.90;;;;;;4926256;28;20088;-84
2021/04/07 08:18:47;;;;;;;12.65;2.25;;;8.70;99.90;;;;;;4925052;28;20152;-84
2021/04/07 08:21:10;;;;;;;12.30;2.72;;;8.80;99.90;;;;;;4922443;28;20082;-82
2021/04/07 08:23:37;;;;;;;10.48;2.05;;;8.80;99.90;;;;;;4925522;28;20103;-85
2021/04/07 08:26:01;;;;;;;8.75;1.50;;;9.10;99.90;;;;;;4907673;28;20081;-86
2021/04/07 08:28:25;;;;;;;9.02;2.05;;;8.80;99.90;;;;;;4923351;28;20086;-88
2021/04/07 08:30:48;;;;;;;9.38;1.67;;;8.90;99.90;;;;;;4922972;28;20205;-86
2021/04/07 08:33:11;;;;;;;13.35;1.83;;;9.20;99.90;;;;;;4926861;28;20093;-85
2021/04/07 08:35:34;;;;;;;11.82;2.22;;;8.50;99.90;;;;;;4924801;28;20100;-86
2021/04/07 08:37:59;;;;;;;12.20;2.38;;;8.10;99.90;;;;;;4924881;28;20083;-85
2021/04/07 08:40:24;;;;;;;11.00;2.38;;;8.80;99.90;;;;;;4923435;28;20088;-84
2021/04/07 08:42:48;;;;;;;7.95;1.67;;;9.00;99.90;;;;;;4916898;28;20096;-84
2021/04/07 08:45:13;;;;;;;7.40;1.80;;;8.80;99.90;;;;;;4924820;28;20087;-85
2021/04/07 08:47:49;;;;;;;14.27;2.10;;;9.10;99.90;;;;;;4925039;28;20096;-88
2021/04/07 08:50:14;;;;;;;9.85;1.60;;;;;;;;;;4913946;28;20089;-85
2021/04/07 08:52:43;;;;;;;10.43;2.50;;;9.20;99.90;;;;;;4917314;28;20108;-87
2021/04/07 08:55:15;;;;;;;15.60;1.63;;;9.10;99.90;;;;;;4923552;28;20073;-87
2021/04/07 08:57:39;;;;;;;11.15;2.28;;;8.40;99.90;;;;;;4924498;28;20525;-88
2021/04/07 09:00:09;;;;;;;11.77;1.90;;;8.60;99.90;;;;;;4923448;28;20135;-86
2021/04/07 09:02:31;;;;;;;9.13;1.63;;;8.60;99.90;;;;;;4897153;28;25926;-86
2021/04/07 09:05:05;;;;;;;11.85;2.28;;;8.60;99.90;;;;;;4889141;28;20613;-85
2021/04/07 09:07:42;;;;;;;10.80;1.95;;;8.50;99.90;;;;;;4893002;28;20807;-87
2021/04/07 09:10:40;;;;;;;13.02;1.70;;;7.70;99.90;;;;;;4909083;28;20089;-85
2021/04/07 09:13:09;;;;;;;8.40;1.52;;;8.00;99.90;;;;;;4889673;28;20112;-87
2021/04/07 09:15:55;;;;;;;12.88;2.35;;;8.30;99.90;;;;;;4891405;28;20115;-87
2021/04/07 09:18:34;;;;;;;10.55;2.13;;;8.30;99.90;;;;;;4890348;28;20215;-86
2021/04/07 09:20:57;;;;;;;7.63;1.27;;;7.90;99.90;;;;;;4875900;28;20100;-86
2021/04/07 09:23:26;;;;;;;17.30;2.42;;;8.00;99.90;;;;;;4876231;28;20128;-89
2021/04/07 09:25:55;;;;;;;11.05;2.00;;;7.70;99.90;;;;;;4887426;28;20087;-84
2021/04/07 09:28:59;;;;;;;5.57;1.67;;;8.00;99.90;;;;;;4857305;28;20782;-87
2021/04/07 09:31:27;;;;;;;8.02;1.27;;;7.80;99.90;;;;;;4861357;28;20109;-86
2021/04/07 09:34:35;;;;;;;6.55;1.25;;;7.40;99.90;;;;;;4887249;28;20469;-88
2021/04/07 09:36:59;;;;;;;13.20;2.03;;;7.00;99.90;;;;;;4884614;28;20533;-87
2021/04/07 09:39:43;;;;;;;13.63;1.48;;;6.70;99.90;;;;;;4889869;28;20108;-84
2021/04/07 09:42:08;;;;;;;20.00;2.25;;;6.70;99.90;;;;;;4885313;28;20092;-83
2021/04/07 09:44:57;;;;;;;10.75;1.63;;;6.70;99.90;;;;;;4887249;28;20177;-86
2021/04/07 09:47:29;;;;;;;17.15;2.35;;;6.90;99.90;;;;;;4873702;28;20087;-84
2021/04/07 09:50:24;;;;;;;7.45;1.42;;;6.60;99.90;;;;;;4872471;28;20086;-84
2021/04/07 09:52:48;;;;;;;9.63;2.42;;;6.80;99.90;;;;;;4863579;28;20125;-83
2021/04/07 09:55:27;;;;;;;12.45;1.60;;;6.70;99.90;;;;;;4874716;28;20095;-85
2021/04/07 09:58:05;;;;;;;9.07;1.40;;;6.60;99.90;;;;;;4871558;28;20079;-85
2021/04/07 10:00:42;;;;;;;11.90;1.42;;;7.10;99.90;;;;;;4853596;28;20177;-85
2021/04/07 10:03:17;;;;;;;12.93;1.08;;;7.00;99.90;;;;;;4874873;28;20170;-84
2021/04/07 10:05:58;;;;;;;10.15;1.52;;;6.70;99.90;;;;;;4861297;28;20106;-84
2021/04/07 10:08:44;;;;;;;9.50;1.80;;;6.40;99.90;;;;;;4869250;28;20087;-84
2021/04/07 10:11:09;;;;;;;6.95;1.65;;;6.40;99.90;;;;;;4871802;28;20166;-83
2021/04/07 10:13:32;;;;;;;16.90;2.05;;;6.80;99.90;;;;;;4853448;28;20095;-85
2021/04/07 10:15:58;;;;;;;11.73;1.70;;;7.10;99.90;;;;;;4873078;28;20600;-87
2021/04/07 10:18:30;;;;;;;15.93;1.75;;;7.00;99.90;;;;;;4878168;28;20607;-85
2021/04/07 10:20:55;;;;;;;8.35;1.30;;;6.60;99.90;;;;;;4854688;28;20130;-82
2021/04/07 10:23:46;;;;;;;7.43;1.02;;;6.30;99.90;;;;;;4858164;28;20094;-85
2021/04/07 10:26:09;;;;;;;8.07;1.20;;;6.30;99.90;;;;;;4866257;28;20169;-84
2021/04/07 10:28:35;;;;;;;10.15;1.95;;;6.10;99.90;;;;;;4878131;28;20113;-85
2021/04/07 10:30:59;;;;;;;7.97;1.77;;;6.30;99.90;;;;;;4884335;28;20078;-85
2021/04/07 10:33:30;;;;;;;8.23;1.55;;;6.40;99.90;;;;;;4894400;28;20113;-83
2021/04/07 10:35:59;;;;;;;10.55;1.80;;;6.40;99.90;;;;;;4882322;28;20090;-85
2021/04/07 10:38:46;;;;;;;8.65;1.90;;;6.30;99.90;;;;;;4899840;28;20515;-85
2021/04/07 10:41:18;;;;;;;8.35;1.90;;;6.10;99.90;;;;;;4874360;28;20139;-83
2021/04/07 10:43:43;;;;;;;11.80;2.33;;;6.10;99.90;;;;;;4900003;28;20087;-86
2021/04/07 10:46:08;;;;;;;9.60;1.27;;;6.20;99.90;;;;;;4893647;28;20509;-84
2021/04/07 10:48:32;;;;;;;7.00;2.10;;;6.70;99.90;;;;;;4891679;28;20093;-84
2021/04/07 10:50:56;;;;;;;6.28;1.50;;;7.50;99.90;;;;;;4886705;28;20101;-84
2021/04/07 10:53:36;;;;;;;5.67;1.67;;;7.80;99.90;;;;;;4874597;28;20104;-84
2021/04/07 10:56:01;;;;;;;5.82;1.60;;;7.80;99.90;;;;;;4892340;28;20086;-88
2021/04/07 10:58:30;;;;;;;6.82;1.65;;;7.00;99.90;;;;;;4896912;28;20094;-86
2021/04/07 11:00:52;;;;;;;5.03;1.55;;;6.70;99.90;;;;;;4893313;28;20098;-86
2021/04/07 11:03:17;;;;;;;7.47;1.65;;;6.20;99.90;;;;;;4902598;28;20098;-86
2021/04/07 11:05:51;;;;;;;4.20;1.70;;;6.10;99.90;;;;;;4906195;28;20472;-83
2021/04/07 11:08:16;;;;;;;10.45;2.05;;;6.20;99.90;;;;;;4894309;28;20464;-86
2021/04/07 11:10:40;;;;;;;4.53;1.80;;;6.10;99.90;;;;;;4924145;28;20169;-84
2021/04/07 11:13:04;;;;;;;8.35;2.45;;;6.10;99.90;;;;;;4925705;28;20093;-85
2021/04/07 11:15:27;;;;;;;4.00;1.67;;;6.00;99.90;;;;;;4926268;28;20090;-85
2021/04/07 11:17:51;;;;;;;7.40;2.10;;;5.90;99.90;;;;;;4921814;28;20094;-84
2021/04/07 11:20:16;;;;;;;5.10;1.98;;;6.00;99.90;;;;;;4927189;28;20131;-86
2021/04/07 11:22:38;;;;;;;7.53;2.53;;;5.70;99.90;;;;;;4922370;28;20525;-84
2021/04/07 11:25:01;;;;;;;4.78;1.85;;;5.90;99.90;;;;;;4926742;28;20091;-85
2021/04/07 11:27:23;;;;;;;10.43;3.00;;;6.10;99.90;;;;;;4925019;28;20521;-85
2021/04/07 11:29:46;;;;;;;4.30;2.22;;;6.20;99.90;;;;;;4926556;28;20087;-84
2021/04/07 11:32:09;;;;;;;4.18;2.35;;;6.60;99.90;;;;;;4926195;28;20441;-86
2021/04/07 11:34:36;;;;;;;5.03;1.80;;;6.50;99.90;;;;;;4925901;28;20095;-83
2021/04/07 11:37:20;;;;;;;4.88;1.70;;;;;;;;;;4913975;28;20556;-84
2021/04/07 11:39:49;;;;;;;4.28;1.83;;;6.30;99.90;;;;;;4923269;28;20113;-85
2021/04/07 11:42:17;;;;;;;6.38;1.88;;;6.10;99.90;;;;;;4923553;28;20090;-84
2021/04/07 11:44:40;;;;;;;11.88;2.53;;;6.10;99.90;;;;;;4922514;28;20090;-85
2021/04/07 11:47:03;;;;;;;9.25;2.40;;;6.20;99.90;;;;;;4924419;28;20449;-85
2021/04/07 11:49:26;;;;;;;7.10;2.00;;;;;;;;;;4925548;28;20173;-85
2021/04/07 11:51:49;;;;;;;4.90;1.92;;;6.60;99.90;;;;;;4922828;28;20090;-84
2021/04/07 11:54:14;;;;;;;4.20;2.00;;;6.40;99.90;;;;;;4923765;28;20083;-83
2021/04/07 11:56:42;;;;;;;4.95;2.10;;;6.30;99.90;;;;;;4923898;28;20083;-82
2021/04/07 11:59:06;;;;;;;8.23;1.85;;;;;;;;;;4921825;28;20106;-86
2021/04/07 12:01:28;;;;;;;3.20;1.83;;;6.00;99.90;;;;;;4925048;28;20090;-87
2021/04/07 12:03:51;;;;;;;4.55;2.03;;;5.90;99.90;;;;;;4924763;28;20545;-92
2021/04/07 12:06:13;;;;;;;5.07;1.90;;;5.70;99.90;;;;;;4925724;28;20133;-89
2021/04/07 12:08:37;;;;;;;8.88;2.28;;;5.60;99.90;;;;;;4922421;28;20106;-91
2021/04/07 12:11:00;;;;;;;4.63;2.00;;;5.40;99.90;;;;;;4922996;28;20091;-88
2021/04/07 12:13:23;;;;;;;5.47;2.10;;;5.30;99.90;;;;;;4924785;28;20108;-89
2021/04/07 12:15:45;;;;;;;6.43;2.10;;;5.60;99.90;;;;;;4926081;28;20172;-92
2021/04/07 12:18:09;;;;;;;5.15;2.13;;;6.00;99.90;;;;;;4924450;28;20094;-93
2021/04/07 12:20:31;;;;;;;4.20;1.67;;;6.20;99.90;;;;;;4923451;28;20086;-90
2021/04/07 12:22:54;;;;;;;6.38;2.15;;;6.10;99.90;;;;;;4926191;28;20143;-89
2021/04/07 12:25:17;;;;;;;8.27;2.10;;;;;;;;;;4923272;28;20081;-92
2021/04/07 12:27:40;;;;;;;6.22;1.67;;;;;;;;;;4922495;28;20144;-89
2021/04/07 12:30:03;;;;;;;4.32;1.80;;;5.60;99.90;;;;;;4924659;28;20503;-91
2021/04/07 12:32:26;;;;;;;6.47;1.90;;;5.50;99.90;;;;;;4923894;28;20090;-88
2021/04/07 12:34:48;;;;;;;4.03;2.13;;;5.40;99.90;;;;;;4924763;28;20082;-92
2021/04/07 12:37:11;;;;;;;6.57;1.77;;;5.50;99.90;;;;;;4923954;28;20086;-91
2021/04/07 12:39:35;;;;;;;5.82;1.95;;;5.30;99.90;;;;;;4924937;28;20090;-87
2021/04/07 12:42:00;;;;;;;6.03;1.75;;;5.10;99.90;;;;;;4914615;28;20165;-91
2021/04/07 12:44:24;;;;;;;8.82;2.13;;;5.10;99.90;;;;;;4921797;28;20572;-93
2021/04/07 12:46:46;;;;;;;5.60;2.10;;;5.30;99.90;;;;;;4924872;28;20567;-91
2021/04/07 12:49:09;;;;;;;8.05;1.80;;;5.30;99.90;;;;;;4923730;28;20110;-87
2021/04/07 12:51:31;;;;;;;8.10;2.15;;;5.60;99.90;;;;;;4924715;28;22684;-88
2021/04/07 12:53:54;;;;;;;4.60;1.83;;;5.60;99.90;;;;;;4923669;28;20101;-91
2021/04/07 12:56:17;;;;;;;3.00;1.58;;;5.60;99.90;;;;;;4924791;28;20090;-94